sensor_id;sensor_type;location;lat;lon;timestamp;P1;durP1;ratioP1;P2;durP2;ratioP2
21258;SDS011;10787;53.364;-1.480;2023-06-24T00:02:07;3.47;;;2.78;;
21258;SDS011;10787;53.364;-1.480;2023-06-24T00:04:52;4.28;;;2.75;;
21258;SDS011;10787;53.364;-1.480;2023-06-24T00:07:37;3.83;;;2.60;;
21258;SDS011;10787;53.364;-1.480;2023-06-24T00:10:28;4.05;;;2.65;;
21258;SDS011;10787;53.364;-1.480;2023-06-24T00:13:13;6.13;;;2.60;;
21258;SDS011;10787;53.364;-1.480;2023-06-24T00:16:01;3.42;;;2.60;;
21258;SDS011;10787;53.364;-1.480;2023-06-24T00:18:45;4.45;;;2.50;;
21258;SDS011;10787;53.364;-1.480;2023-06-24T00:21:29;2.92;;;2.17;;
21258;SDS011;10787;53.364;-1.480;2023-06-24T00:24:13;2.22;;;2.00;;
21258;SDS011;10787;53.364;-1.480;2023-06-24T00:26:58;3.55;;;2.38;;
21258;SDS011;10787;53.364;-1.480;2023-06-24T00:29:42;5.13;;;2.38;;
21258;SDS011;10787;53.364;-1.480;2023-06-24T00:32:26;5.15;;;2.72;;
21258;SDS011;10787;53.364;-1.480;2023-06-24T00:35:10;2.40;;;2.00;;
21258;SDS011;10787;53.364;-1.480;2023-06-24T00:37:55;2.70;;;2.00;;
21258;SDS011;10787;53.364;-1.480;2023-06-24T00:40:42;2.67;;;2.00;;
21258;SDS011;10787;53.364;-1.480;2023-06-24T00:43:26;3.08;;;2.05;;
21258;SDS011;10787;53.364;-1.480;2023-06-24T00:46:10;3.13;;;1.83;;
21258;SDS011;10787;53.364;-1.480;2023-06-24T00:48:56;2.45;;;1.90;;
21258;SDS011;10787;53.364;-1.480;2023-06-24T00:51:41;2.53;;;2.00;;
21258;SDS011;10787;53.364;-1.480;2023-06-24T00:54:30;3.63;;;2.03;;
21258;SDS011;10787;53.364;-1.480;2023-06-24T00:57:15;4.70;;;2.33;;
21258;SDS011;10787;53.364;-1.480;2023-06-24T01:00:01;2.28;;;1.88;;
21258;SDS011;10787;53.364;-1.480;2023-06-24T01:02:49;3.58;;;2.05;;
21258;SDS011;10787;53.364;-1.480;2023-06-24T01:05:33;3.25;;;1.70;;
21258;SDS011;10787;53.364;-1.480;2023-06-24T01:08:18;2.72;;;1.88;;
21258;SDS011;10787;53.364;-1.480;2023-06-24T01:11:06;3.35;;;2.03;;
21258;SDS011;10787;53.364;-1.480;2023-06-24T01:13:50;3.50;;;1.80;;
21258;SDS011;10787;53.364;-1.480;2023-06-24T01:16:42;2.53;;;1.70;;
21258;SDS011;10787;53.364;-1.480;2023-06-24T01:20:08;3.65;;;1.80;;
21258;SDS011;10787;53.364;-1.480;2023-06-24T01:35:21;2.17;;;1.95;;
21258;SDS011;10787;53.364;-1.480;2023-06-24T01:38:13;3.05;;;1.98;;
21258;SDS011;10787;53.364;-1.480;2023-06-24T01:41:26;2.42;;;1.88;;
21258;SDS011;10787;53.364;-1.480;2023-06-24T01:44:34;2.55;;;1.90;;
21258;SDS011;10787;53.364;-1.480;2023-06-24T01:47:21;2.55;;;1.83;;
21258;SDS011;10787;53.364;-1.480;2023-06-24T01:50:10;3.08;;;2.20;;
21258;SDS011;10787;53.364;-1.480;2023-06-24T01:52:56;2.88;;;1.90;;
21258;SDS011;10787;53.364;-1.480;2023-06-24T01:55:41;2.35;;;1.90;;
21258;SDS011;10787;53.364;-1.480;2023-06-24T01:58:27;2.20;;;2.00;;
21258;SDS011;10787;53.364;-1.480;2023-06-24T02:01:14;5.55;;;2.30;;
21258;SDS011;10787;53.364;-1.480;2023-06-24T02:04:00;4.75;;;2.10;;
21258;SDS011;10787;53.364;-1.480;2023-06-24T02:06:47;3.97;;;2.05;;
21258;SDS011;10787;53.364;-1.480;2023-06-24T02:09:33;3.60;;;2.15;;
21258;SDS011;10787;53.364;-1.480;2023-06-24T02:12:17;5.03;;;2.33;;
21258;SDS011;10787;53.364;-1.480;2023-06-24T02:15:03;3.53;;;2.10;;
21258;SDS011;10787;53.364;-1.480;2023-06-24T02:17:50;4.40;;;2.20;;
21258;SDS011;10787;53.364;-1.480;2023-06-24T02:20:39;3.10;;;2.10;;
21258;SDS011;10787;53.364;-1.480;2023-06-24T02:23:25;2.53;;;2.00;;
21258;SDS011;10787;53.364;-1.480;2023-06-24T02:26:11;2.72;;;2.20;;
21258;SDS011;10787;53.364;-1.480;2023-06-24T02:28:56;2.40;;;2.20;;
21258;SDS011;10787;53.364;-1.480;2023-06-24T02:31:41;4.80;;;2.55;;
21258;SDS011;10787;53.364;-1.480;2023-06-24T02:34:26;4.28;;;2.30;;
21258;SDS011;10787;53.364;-1.480;2023-06-24T02:37:11;4.65;;;2.30;;
21258;SDS011;10787;53.364;-1.480;2023-06-24T02:39:56;3.20;;;2.50;;
21258;SDS011;10787;53.364;-1.480;2023-06-24T02:42:40;3.50;;;2.50;;
21258;SDS011;10787;53.364;-1.480;2023-06-24T02:45:25;5.13;;;2.50;;
21258;SDS011;10787;53.364;-1.480;2023-06-24T02:48:11;3.42;;;2.40;;
21258;SDS011;10787;53.364;-1.480;2023-06-24T02:50:57;2.80;;;2.20;;
21258;SDS011;10787;53.364;-1.480;2023-06-24T02:53:43;2.67;;;2.30;;
21258;SDS011;10787;53.364;-1.480;2023-06-24T02:56:28;2.70;;;2.50;;
21258;SDS011;10787;53.364;-1.480;2023-06-24T02:59:13;4.03;;;2.42;;
21258;SDS011;10787;53.364;-1.480;2023-06-24T03:01:57;3.25;;;2.40;;
21258;SDS011;10787;53.364;-1.480;2023-06-24T03:04:43;4.50;;;2.60;;
21258;SDS011;10787;53.364;-1.480;2023-06-24T03:07:28;4.13;;;2.53;;
21258;SDS011;10787;53.364;-1.480;2023-06-24T03:10:13;3.63;;;2.67;;
21258;SDS011;10787;53.364;-1.480;2023-06-24T03:12:58;3.50;;;2.58;;
21258;SDS011;10787;53.364;-1.480;2023-06-24T03:15:42;4.70;;;2.72;;
21258;SDS011;10787;53.364;-1.480;2023-06-24T03:18:26;4.03;;;2.80;;
21258;SDS011;10787;53.364;-1.480;2023-06-24T03:21:10;4.28;;;2.90;;
21258;SDS011;10787;53.364;-1.480;2023-06-24T03:23:55;5.03;;;3.15;;
21258;SDS011;10787;53.364;-1.480;2023-06-24T03:26:40;3.20;;;2.90;;
21258;SDS011;10787;53.364;-1.480;2023-06-24T03:29:24;3.97;;;3.15;;
21258;SDS011;10787;53.364;-1.480;2023-06-24T03:32:08;3.75;;;3.10;;
21258;SDS011;10787;53.364;-1.480;2023-06-24T03:34:53;4.40;;;2.95;;
21258;SDS011;10787;53.364;-1.480;2023-06-24T03:37:37;4.97;;;2.83;;
21258;SDS011;10787;53.364;-1.480;2023-06-24T03:40:21;5.68;;;3.10;;
21258;SDS011;10787;53.364;-1.480;2023-06-24T03:43:05;3.50;;;2.95;;
21258;SDS011;10787;53.364;-1.480;2023-06-24T03:45:50;3.95;;;3.17;;
21258;SDS011;10787;53.364;-1.480;2023-06-24T03:48:34;5.20;;;3.10;;
21258;SDS011;10787;53.364;-1.480;2023-06-24T03:51:19;4.75;;;3.38;;
21258;SDS011;10787;53.364;-1.480;2023-06-24T03:54:03;4.00;;;3.50;;
21258;SDS011;10787;53.364;-1.480;2023-06-24T03:56:47;3.90;;;3.30;;
21258;SDS011;10787;53.364;-1.480;2023-06-24T03:59:32;3.22;;;2.92;;
21258;SDS011;10787;53.364;-1.480;2023-06-24T04:02:16;3.75;;;3.00;;
21258;SDS011;10787;53.364;-1.480;2023-06-24T04:05:01;3.70;;;2.95;;
21258;SDS011;10787;53.364;-1.480;2023-06-24T04:07:46;4.40;;;2.90;;
21258;SDS011;10787;53.364;-1.480;2023-06-24T04:10:31;5.68;;;2.70;;
21258;SDS011;10787;53.364;-1.480;2023-06-24T04:13:15;3.20;;;2.40;;
21258;SDS011;10787;53.364;-1.480;2023-06-24T04:16:00;3.40;;;2.50;;
21258;SDS011;10787;53.364;-1.480;2023-06-24T04:18:44;4.22;;;2.70;;
21258;SDS011;10787;53.364;-1.480;2023-06-24T04:21:28;4.65;;;2.70;;
21258;SDS011;10787;53.364;-1.480;2023-06-24T04:24:12;3.45;;;2.70;;
21258;SDS011;10787;53.364;-1.480;2023-06-24T04:26:57;3.70;;;2.72;;
21258;SDS011;10787;53.364;-1.480;2023-06-24T04:29:42;4.93;;;2.50;;
21258;SDS011;10787;53.364;-1.480;2023-06-24T04:32:26;4.13;;;2.75;;
21258;SDS011;10787;53.364;-1.480;2023-06-24T04:35:10;3.15;;;2.47;;
21258;SDS011;10787;53.364;-1.480;2023-06-24T04:37:55;3.10;;;2.80;;
21258;SDS011;10787;53.364;-1.480;2023-06-24T04:40:39;4.72;;;2.60;;
21258;SDS011;10787;53.364;-1.480;2023-06-24T04:43:23;3.88;;;2.70;;
21258;SDS011;10787;53.364;-1.480;2023-06-24T04:46:07;3.65;;;2.47;;
21258;SDS011;10787;53.364;-1.480;2023-06-24T04:48:52;4.28;;;2.60;;
21258;SDS011;10787;53.364;-1.480;2023-06-24T04:51:36;4.03;;;2.97;;
21258;SDS011;10787;53.364;-1.480;2023-06-24T04:54:21;3.85;;;2.33;;
21258;SDS011;10787;53.364;-1.480;2023-06-24T04:57:07;6.35;;;3.00;;
21258;SDS011;10787;53.364;-1.480;2023-06-24T04:59:53;3.88;;;2.42;;
21258;SDS011;10787;53.364;-1.480;2023-06-24T05:02:37;2.80;;;2.55;;
21258;SDS011;10787;53.364;-1.480;2023-06-24T05:05:21;3.20;;;2.70;;
21258;SDS011;10787;53.364;-1.480;2023-06-24T05:08:06;3.03;;;2.60;;
21258;SDS011;10787;53.364;-1.480;2023-06-24T05:10:50;4.32;;;2.88;;
21258;SDS011;10787;53.364;-1.480;2023-06-24T05:13:35;3.10;;;2.78;;
21258;SDS011;10787;53.364;-1.480;2023-06-24T05:16:20;4.25;;;2.70;;
21258;SDS011;10787;53.364;-1.480;2023-06-24T05:19:05;3.85;;;2.70;;
21258;SDS011;10787;53.364;-1.480;2023-06-24T05:21:50;3.85;;;2.88;;
21258;SDS011;10787;53.364;-1.480;2023-06-24T05:24:33;4.00;;;2.83;;
21258;SDS011;10787;53.364;-1.480;2023-06-24T05:27:18;4.57;;;3.05;;
21258;SDS011;10787;53.364;-1.480;2023-06-24T05:30:02;3.42;;;2.78;;
21258;SDS011;10787;53.364;-1.480;2023-06-24T05:32:47;4.70;;;3.05;;
21258;SDS011;10787;53.364;-1.480;2023-06-24T05:35:31;5.00;;;3.38;;
21258;SDS011;10787;53.364;-1.480;2023-06-24T05:38:16;3.42;;;2.80;;
21258;SDS011;10787;53.364;-1.480;2023-06-24T05:41:00;3.72;;;3.20;;
21258;SDS011;10787;53.364;-1.480;2023-06-24T05:43:46;5.05;;;3.10;;
21258;SDS011;10787;53.364;-1.480;2023-06-24T05:46:30;4.30;;;3.22;;
21258;SDS011;10787;53.364;-1.480;2023-06-24T05:49:15;4.15;;;3.20;;
21258;SDS011;10787;53.364;-1.480;2023-06-24T05:51:59;5.07;;;3.20;;
21258;SDS011;10787;53.364;-1.480;2023-06-24T05:54:44;5.38;;;3.15;;
21258;SDS011;10787;53.364;-1.480;2023-06-24T05:57:28;3.75;;;3.30;;
21258;SDS011;10787;53.364;-1.480;2023-06-24T06:00:12;4.10;;;3.00;;
21258;SDS011;10787;53.364;-1.480;2023-06-24T06:02:57;3.75;;;3.20;;
21258;SDS011;10787;53.364;-1.480;2023-06-24T06:05:41;4.68;;;2.90;;
21258;SDS011;10787;53.364;-1.480;2023-06-24T06:08:25;4.25;;;3.30;;
21258;SDS011;10787;53.364;-1.480;2023-06-24T06:11:10;3.97;;;3.10;;
21258;SDS011;10787;53.364;-1.480;2023-06-24T06:13:54;4.13;;;3.15;;
21258;SDS011;10787;53.364;-1.480;2023-06-24T06:16:39;4.55;;;3.15;;
21258;SDS011;10787;53.364;-1.480;2023-06-24T06:19:24;3.67;;;3.30;;
21258;SDS011;10787;53.364;-1.480;2023-06-24T06:22:08;4.32;;;3.00;;
21258;SDS011;10787;53.364;-1.480;2023-06-24T06:24:52;5.18;;;3.50;;
21258;SDS011;10787;53.364;-1.480;2023-06-24T06:27:36;4.45;;;3.50;;
21258;SDS011;10787;53.364;-1.480;2023-06-24T06:30:20;4.43;;;3.30;;
21258;SDS011;10787;53.364;-1.480;2023-06-24T06:33:05;4.30;;;3.38;;
21258;SDS011;10787;53.364;-1.480;2023-06-24T06:35:50;5.07;;;3.67;;
21258;SDS011;10787;53.364;-1.480;2023-06-24T06:38:34;4.82;;;3.75;;
21258;SDS011;10787;53.364;-1.480;2023-06-24T06:41:18;6.35;;;3.55;;
21258;SDS011;10787;53.364;-1.480;2023-06-24T06:44:08;4.88;;;3.60;;
21258;SDS011;10787;53.364;-1.480;2023-06-24T06:46:52;6.85;;;3.55;;
21258;SDS011;10787;53.364;-1.480;2023-06-24T06:49:37;4.85;;;3.60;;
21258;SDS011;10787;53.364;-1.480;2023-06-24T06:52:20;6.00;;;3.90;;
21258;SDS011;10787;53.364;-1.480;2023-06-24T06:55:05;4.05;;;3.50;;
21258;SDS011;10787;53.364;-1.480;2023-06-24T06:57:49;5.40;;;3.83;;
21258;SDS011;10787;53.364;-1.480;2023-06-24T07:00:34;3.97;;;3.42;;
21258;SDS011;10787;53.364;-1.480;2023-06-24T07:03:18;6.18;;;3.65;;
21258;SDS011;10787;53.364;-1.480;2023-06-24T07:06:02;4.38;;;3.50;;
21258;SDS011;10787;53.364;-1.480;2023-06-24T07:08:46;3.78;;;3.38;;
21258;SDS011;10787;53.364;-1.480;2023-06-24T07:11:30;4.85;;;3.50;;
21258;SDS011;10787;53.364;-1.480;2023-06-24T07:14:14;4.65;;;3.75;;
21258;SDS011;10787;53.364;-1.480;2023-06-24T07:16:58;4.47;;;3.55;;
21258;SDS011;10787;53.364;-1.480;2023-06-24T07:19:43;6.18;;;3.60;;
21258;SDS011;10787;53.364;-1.480;2023-06-24T07:22:27;3.55;;;3.25;;
21258;SDS011;10787;53.364;-1.480;2023-06-24T07:25:14;4.70;;;3.95;;
21258;SDS011;10787;53.364;-1.480;2023-06-24T07:27:58;4.07;;;3.63;;
21258;SDS011;10787;53.364;-1.480;2023-06-24T07:30:43;4.65;;;3.50;;
21258;SDS011;10787;53.364;-1.480;2023-06-24T07:33:27;5.20;;;3.47;;
21258;SDS011;10787;53.364;-1.480;2023-06-24T07:36:14;5.10;;;3.47;;
21258;SDS011;10787;53.364;-1.480;2023-06-24T07:38:58;4.60;;;3.78;;
21258;SDS011;10787;53.364;-1.480;2023-06-24T07:41:42;4.55;;;3.58;;
21258;SDS011;10787;53.364;-1.480;2023-06-24T07:44:27;5.53;;;3.22;;
21258;SDS011;10787;53.364;-1.480;2023-06-24T07:47:11;6.57;;;3.50;;
21258;SDS011;10787;53.364;-1.480;2023-06-24T07:49:55;5.85;;;3.15;;
21258;SDS011;10787;53.364;-1.480;2023-06-24T07:52:39;6.70;;;3.33;;
21258;SDS011;10787;53.364;-1.480;2023-06-24T07:55:23;3.97;;;3.10;;
21258;SDS011;10787;53.364;-1.480;2023-06-24T07:58:07;4.22;;;3.10;;
21258;SDS011;10787;53.364;-1.480;2023-06-24T08:00:51;3.90;;;3.05;;
21258;SDS011;10787;53.364;-1.480;2023-06-24T08:03:36;3.75;;;2.80;;
21258;SDS011;10787;53.364;-1.480;2023-06-24T08:06:20;6.35;;;2.45;;
21258;SDS011;10787;53.364;-1.480;2023-06-24T08:09:04;4.32;;;2.40;;
21258;SDS011;10787;53.364;-1.480;2023-06-24T08:11:48;3.30;;;2.47;;
21258;SDS011;10787;53.364;-1.480;2023-06-24T08:14:32;3.45;;;2.17;;
21258;SDS011;10787;53.364;-1.480;2023-06-24T08:17:17;2.67;;;2.22;;
21258;SDS011;10787;53.364;-1.480;2023-06-24T08:20:01;4.57;;;2.13;;
21258;SDS011;10787;53.364;-1.480;2023-06-24T08:22:47;4.15;;;2.10;;
21258;SDS011;10787;53.364;-1.480;2023-06-24T08:25:31;3.38;;;2.33;;
21258;SDS011;10787;53.364;-1.480;2023-06-24T08:28:16;2.42;;;1.92;;
21258;SDS011;10787;53.364;-1.480;2023-06-24T08:31:00;2.47;;;2.10;;
21258;SDS011;10787;53.364;-1.480;2023-06-24T08:33:44;4.07;;;1.90;;
21258;SDS011;10787;53.364;-1.480;2023-06-24T08:36:29;2.55;;;2.20;;
21258;SDS011;10787;53.364;-1.480;2023-06-24T08:39:14;3.33;;;2.20;;
21258;SDS011;10787;53.364;-1.480;2023-06-24T08:41:58;3.35;;;2.50;;
21258;SDS011;10787;53.364;-1.480;2023-06-24T08:44:43;3.83;;;2.50;;
21258;SDS011;10787;53.364;-1.480;2023-06-24T08:47:28;3.60;;;3.00;;
21258;SDS011;10787;53.364;-1.480;2023-06-24T08:50:14;2.65;;;2.40;;
21258;SDS011;10787;53.364;-1.480;2023-06-24T08:52:59;3.53;;;3.00;;
21258;SDS011;10787;53.364;-1.480;2023-06-24T08:55:48;2.72;;;2.38;;
21258;SDS011;10787;53.364;-1.480;2023-06-24T08:58:34;3.53;;;2.70;;
21258;SDS011;10787;53.364;-1.480;2023-06-24T09:01:19;3.10;;;2.40;;
21258;SDS011;10787;53.364;-1.480;2023-06-24T09:04:04;5.60;;;3.00;;
21258;SDS011;10787;53.364;-1.480;2023-06-24T09:06:48;3.53;;;2.70;;
21258;SDS011;10787;53.364;-1.480;2023-06-24T09:09:33;5.30;;;3.05;;
21258;SDS011;10787;53.364;-1.480;2023-06-24T09:12:27;2.90;;;2.58;;
21258;SDS011;10787;53.364;-1.480;2023-06-24T09:15:14;2.75;;;2.35;;
21258;SDS011;10787;53.364;-1.480;2023-06-24T09:17:59;2.95;;;2.40;;
21258;SDS011;10787;53.364;-1.480;2023-06-24T09:20:45;4.90;;;2.80;;
21258;SDS011;10787;53.364;-1.480;2023-06-24T09:23:36;4.28;;;2.38;;
21258;SDS011;10787;53.364;-1.480;2023-06-24T09:26:24;4.28;;;2.63;;
21258;SDS011;10787;53.364;-1.480;2023-06-24T09:29:11;2.67;;;2.25;;
21258;SDS011;10787;53.364;-1.480;2023-06-24T09:31:58;3.92;;;2.35;;
21258;SDS011;10787;53.364;-1.480;2023-06-24T09:34:43;2.80;;;2.15;;
21258;SDS011;10787;53.364;-1.480;2023-06-24T09:37:27;2.63;;;2.13;;
21258;SDS011;10787;53.364;-1.480;2023-06-24T09:40:14;4.93;;;2.13;;
21258;SDS011;10787;53.364;-1.480;2023-06-24T09:42:59;4.20;;;2.30;;
21258;SDS011;10787;53.364;-1.480;2023-06-24T09:45:44;3.28;;;2.20;;
21258;SDS011;10787;53.364;-1.480;2023-06-24T09:48:29;2.90;;;2.22;;
21258;SDS011;10787;53.364;-1.480;2023-06-24T09:51:13;2.60;;;2.40;;
21258;SDS011;10787;53.364;-1.480;2023-06-24T09:53:58;2.90;;;2.30;;
21258;SDS011;10787;53.364;-1.480;2023-06-24T09:56:43;3.60;;;2.38;;
21258;SDS011;10787;53.364;-1.480;2023-06-24T09:59:30;2.50;;;2.17;;
21258;SDS011;10787;53.364;-1.480;2023-06-24T10:02:16;2.58;;;2.20;;
21258;SDS011;10787;53.364;-1.480;2023-06-24T10:05:02;2.55;;;2.20;;
21258;SDS011;10787;53.364;-1.480;2023-06-24T10:07:48;2.67;;;2.17;;
21258;SDS011;10787;53.364;-1.480;2023-06-24T10:10:32;3.55;;;2.38;;
21258;SDS011;10787;53.364;-1.480;2023-06-24T10:13:17;2.75;;;2.28;;
21258;SDS011;10787;53.364;-1.480;2023-06-24T10:16:02;4.85;;;2.20;;
21258;SDS011;10787;53.364;-1.480;2023-06-24T10:18:46;1.88;;;1.70;;
21258;SDS011;10787;53.364;-1.480;2023-06-24T10:21:45;2.33;;;1.90;;
21258;SDS011;10787;53.364;-1.480;2023-06-24T10:24:37;2.70;;;2.00;;
21258;SDS011;10787;53.364;-1.480;2023-06-24T10:27:23;3.70;;;2.28;;
21258;SDS011;10787;53.364;-1.480;2023-06-24T10:30:08;2.85;;;1.95;;
21258;SDS011;10787;53.364;-1.480;2023-06-24T10:33:00;2.22;;;1.80;;
21258;SDS011;10787;53.364;-1.480;2023-06-24T10:35:44;3.45;;;1.85;;
21258;SDS011;10787;53.364;-1.480;2023-06-24T10:38:28;2.15;;;1.92;;
21258;SDS011;10787;53.364;-1.480;2023-06-24T10:41:15;2.85;;;1.60;;
21258;SDS011;10787;53.364;-1.480;2023-06-24T10:44:14;2.17;;;1.73;;
21258;SDS011;10787;53.364;-1.480;2023-06-24T10:46:58;2.45;;;1.60;;
21258;SDS011;10787;53.364;-1.480;2023-06-24T10:49:42;2.15;;;1.85;;
21258;SDS011;10787;53.364;-1.480;2023-06-24T10:52:26;2.13;;;1.77;;
21258;SDS011;10787;53.364;-1.480;2023-06-24T10:55:17;3.00;;;1.70;;
21258;SDS011;10787;53.364;-1.480;2023-06-24T10:58:08;2.25;;;2.00;;
21258;SDS011;10787;53.364;-1.480;2023-06-24T11:01:05;1.90;;;1.80;;
21258;SDS011;10787;53.364;-1.480;2023-06-24T11:03:50;2.50;;;1.55;;
21258;SDS011;10787;53.364;-1.480;2023-06-24T11:06:35;3.15;;;2.03;;
21258;SDS011;10787;53.364;-1.480;2023-06-24T11:09:19;1.70;;;1.60;;
21258;SDS011;10787;53.364;-1.480;2023-06-24T11:12:03;1.67;;;1.58;;
21258;SDS011;10787;53.364;-1.480;2023-06-24T11:14:47;1.90;;;1.40;;
21258;SDS011;10787;53.364;-1.480;2023-06-24T11:17:35;2.17;;;1.35;;
21258;SDS011;10787;53.364;-1.480;2023-06-24T11:20:20;1.80;;;1.30;;
21258;SDS011;10787;53.364;-1.480;2023-06-24T11:23:07;2.85;;;1.30;;
21258;SDS011;10787;53.364;-1.480;2023-06-24T11:25:53;2.55;;;2.25;;
21258;SDS011;10787;53.364;-1.480;2023-06-24T11:28:39;2.30;;;2.00;;
21258;SDS011;10787;53.364;-1.480;2023-06-24T11:31:27;2.35;;;1.65;;
21258;SDS011;10787;53.364;-1.480;2023-06-24T11:34:12;1.40;;;1.30;;
21258;SDS011;10787;53.364;-1.480;2023-06-24T11:36:56;3.25;;;1.40;;
21258;SDS011;10787;53.364;-1.480;2023-06-24T11:39:40;3.05;;;1.38;;
21258;SDS011;10787;53.364;-1.480;2023-06-24T11:42:25;1.42;;;1.20;;
21258;SDS011;10787;53.364;-1.480;2023-06-24T11:45:11;3.08;;;1.30;;
21258;SDS011;10787;53.364;-1.480;2023-06-24T11:48:01;1.48;;;1.30;;
21258;SDS011;10787;53.364;-1.480;2023-06-24T11:50:54;2.35;;;1.20;;
21258;SDS011;10787;53.364;-1.480;2023-06-24T11:53:42;2.13;;;1.40;;
21258;SDS011;10787;53.364;-1.480;2023-06-24T11:56:37;1.38;;;1.27;;
21258;SDS011;10787;53.364;-1.480;2023-06-24T11:59:22;1.67;;;1.38;;
21258;SDS011;10787;53.364;-1.480;2023-06-24T12:02:12;2.75;;;1.40;;
21258;SDS011;10787;53.364;-1.480;2023-06-24T12:04:57;1.42;;;1.20;;
21258;SDS011;10787;53.364;-1.480;2023-06-24T12:07:41;1.65;;;1.20;;
21258;SDS011;10787;53.364;-1.480;2023-06-24T12:10:26;3.33;;;1.30;;
21258;SDS011;10787;53.364;-1.480;2023-06-24T12:13:12;1.20;;;1.02;;
21258;SDS011;10787;53.364;-1.480;2023-06-24T12:15:56;1.65;;;0.95;;
21258;SDS011;10787;53.364;-1.480;2023-06-24T12:18:41;1.70;;;1.00;;
21258;SDS011;10787;53.364;-1.480;2023-06-24T12:21:25;1.52;;;1.10;;
21258;SDS011;10787;53.364;-1.480;2023-06-24T12:24:09;1.45;;;1.10;;
21258;SDS011;10787;53.364;-1.480;2023-06-24T12:26:53;2.00;;;1.10;;
21258;SDS011;10787;53.364;-1.480;2023-06-24T12:29:38;1.20;;;1.10;;
21258;SDS011;10787;53.364;-1.480;2023-06-24T12:32:24;1.48;;;1.10;;
21258;SDS011;10787;53.364;-1.480;2023-06-24T12:35:09;1.30;;;1.20;;
21258;SDS011;10787;53.364;-1.480;2023-06-24T12:37:54;2.47;;;1.10;;
21258;SDS011;10787;53.364;-1.480;2023-06-24T12:40:38;1.25;;;1.00;;
21258;SDS011;10787;53.364;-1.480;2023-06-24T12:43:22;1.30;;;0.98;;
21258;SDS011;10787;53.364;-1.480;2023-06-24T12:46:07;1.33;;;1.13;;
21258;SDS011;10787;53.364;-1.480;2023-06-24T12:48:51;2.25;;;1.00;;
21258;SDS011;10787;53.364;-1.480;2023-06-24T12:51:35;2.42;;;1.20;;
21258;SDS011;10787;53.364;-1.480;2023-06-24T12:54:19;1.73;;;1.10;;
21258;SDS011;10787;53.364;-1.480;2023-06-24T12:57:03;1.50;;;1.20;;
21258;SDS011;10787;53.364;-1.480;2023-06-24T12:59:48;1.13;;;0.93;;
21258;SDS011;10787;53.364;-1.480;2023-06-24T13:02:32;1.77;;;1.00;;
21258;SDS011;10787;53.364;-1.480;2023-06-24T13:05:17;1.10;;;1.00;;
21258;SDS011;10787;53.364;-1.480;2023-06-24T13:08:04;1.63;;;1.10;;
21258;SDS011;10787;53.364;-1.480;2023-06-24T13:10:57;1.73;;;1.05;;
21258;SDS011;10787;53.364;-1.480;2023-06-24T13:13:41;1.85;;;1.30;;
21258;SDS011;10787;53.364;-1.480;2023-06-24T13:16:28;1.40;;;1.05;;
21258;SDS011;10787;53.364;-1.480;2023-06-24T13:19:13;3.17;;;1.30;;
21258;SDS011;10787;53.364;-1.480;2023-06-24T13:22:01;1.83;;;1.20;;
21258;SDS011;10787;53.364;-1.480;2023-06-24T13:24:47;1.83;;;1.30;;
21258;SDS011;10787;53.364;-1.480;2023-06-24T13:27:32;4.50;;;1.45;;
21258;SDS011;10787;53.364;-1.480;2023-06-24T13:30:22;1.98;;;1.20;;
21258;SDS011;10787;53.364;-1.480;2023-06-24T13:33:10;3.08;;;1.20;;
21258;SDS011;10787;53.364;-1.480;2023-06-24T13:35:57;2.28;;;1.40;;
21258;SDS011;10787;53.364;-1.480;2023-06-24T13:38:41;1.38;;;1.27;;
21258;SDS011;10787;53.364;-1.480;2023-06-24T13:41:28;1.50;;;1.40;;
21258;SDS011;10787;53.364;-1.480;2023-06-24T13:44:16;1.63;;;1.50;;
21258;SDS011;10787;53.364;-1.480;2023-06-24T13:47:00;4.60;;;1.48;;
21258;SDS011;10787;53.364;-1.480;2023-06-24T13:49:50;2.40;;;1.40;;
21258;SDS011;10787;53.364;-1.480;2023-06-24T13:52:35;2.70;;;1.30;;
21258;SDS011;10787;53.364;-1.480;2023-06-24T13:55:24;1.85;;;1.73;;
21258;SDS011;10787;53.364;-1.480;2023-06-24T13:58:08;1.50;;;1.27;;
21258;SDS011;10787;53.364;-1.480;2023-06-24T14:00:52;1.70;;;1.30;;
21258;SDS011;10787;53.364;-1.480;2023-06-24T14:03:39;2.33;;;1.42;;
21258;SDS011;10787;53.364;-1.480;2023-06-24T14:06:25;1.58;;;1.30;;
21258;SDS011;10787;53.364;-1.480;2023-06-24T14:09:09;2.08;;;1.50;;
21258;SDS011;10787;53.364;-1.480;2023-06-24T14:11:57;1.60;;;1.50;;
21258;SDS011;10787;53.364;-1.480;2023-06-24T14:14:41;2.65;;;1.33;;
21258;SDS011;10787;53.364;-1.480;2023-06-24T14:17:26;1.85;;;1.35;;
21258;SDS011;10787;53.364;-1.480;2023-06-24T14:20:11;3.13;;;1.65;;
21258;SDS011;10787;53.364;-1.480;2023-06-24T14:22:56;3.55;;;1.52;;
21258;SDS011;10787;53.364;-1.480;2023-06-24T14:25:46;2.13;;;1.50;;
21258;SDS011;10787;53.364;-1.480;2023-06-24T14:28:33;2.20;;;1.60;;
21258;SDS011;10787;53.364;-1.480;2023-06-24T14:31:30;3.03;;;1.38;;
21258;SDS011;10787;53.364;-1.480;2023-06-24T14:34:23;1.60;;;1.50;;
21258;SDS011;10787;53.364;-1.480;2023-06-24T14:37:07;2.17;;;1.40;;
21258;SDS011;10787;53.364;-1.480;2023-06-24T14:39:57;3.35;;;1.60;;
21258;SDS011;10787;53.364;-1.480;2023-06-24T14:42:41;2.33;;;1.63;;
21258;SDS011;10787;53.364;-1.480;2023-06-24T14:45:25;1.92;;;1.50;;
21258;SDS011;10787;53.364;-1.480;2023-06-24T14:48:09;2.25;;;1.90;;
21258;SDS011;10787;53.364;-1.480;2023-06-24T14:50:54;1.75;;;1.50;;
21258;SDS011;10787;53.364;-1.480;2023-06-24T14:53:39;3.53;;;1.67;;
21258;SDS011;10787;53.364;-1.480;2023-06-24T14:56:24;3.42;;;1.65;;
21258;SDS011;10787;53.364;-1.480;2023-06-24T14:59:08;2.13;;;1.60;;
21258;SDS011;10787;53.364;-1.480;2023-06-24T15:01:52;3.05;;;1.70;;
21258;SDS011;10787;53.364;-1.480;2023-06-24T15:04:36;1.95;;;1.75;;
21258;SDS011;10787;53.364;-1.480;2023-06-24T15:07:22;2.05;;;1.80;;
21258;SDS011;10787;53.364;-1.480;2023-06-24T15:10:06;2.15;;;1.77;;
21258;SDS011;10787;53.364;-1.480;2023-06-24T15:12:50;2.63;;;1.70;;
21258;SDS011;10787;53.364;-1.480;2023-06-24T15:15:34;2.40;;;1.70;;
21258;SDS011;10787;53.364;-1.480;2023-06-24T15:18:19;4.90;;;2.08;;
21258;SDS011;10787;53.364;-1.480;2023-06-24T15:21:03;3.28;;;1.80;;
21258;SDS011;10787;53.364;-1.480;2023-06-24T15:23:47;3.05;;;1.60;;
21258;SDS011;10787;53.364;-1.480;2023-06-24T15:26:31;1.60;;;1.50;;
21258;SDS011;10787;53.364;-1.480;2023-06-24T15:29:16;2.53;;;1.83;;
21258;SDS011;10787;53.364;-1.480;2023-06-24T15:32:00;1.80;;;1.70;;
21258;SDS011;10787;53.364;-1.480;2023-06-24T15:34:44;3.58;;;1.77;;
21258;SDS011;10787;53.364;-1.480;2023-06-24T15:37:29;3.38;;;1.83;;
21258;SDS011;10787;53.364;-1.480;2023-06-24T15:40:14;3.42;;;1.60;;
21258;SDS011;10787;53.364;-1.480;2023-06-24T15:42:59;3.95;;;2.38;;
21258;SDS011;10787;53.364;-1.480;2023-06-24T15:45:44;3.78;;;1.98;;
21258;SDS011;10787;53.364;-1.480;2023-06-24T15:48:28;3.70;;;3.28;;
21258;SDS011;10787;53.364;-1.480;2023-06-24T15:51:12;3.15;;;2.30;;
21258;SDS011;10787;53.364;-1.480;2023-06-24T15:53:57;4.95;;;4.25;;
21258;SDS011;10787;53.364;-1.480;2023-06-24T15:56:41;2.20;;;2.00;;
21258;SDS011;10787;53.364;-1.480;2023-06-24T15:59:25;2.58;;;2.05;;
21258;SDS011;10787;53.364;-1.480;2023-06-24T16:02:09;3.33;;;2.00;;
21258;SDS011;10787;53.364;-1.480;2023-06-24T16:04:53;2.10;;;1.90;;
21258;SDS011;10787;53.364;-1.480;2023-06-24T16:07:38;3.10;;;2.80;;
21258;SDS011;10787;53.364;-1.480;2023-06-24T16:10:25;2.40;;;2.20;;
21258;SDS011;10787;53.364;-1.480;2023-06-24T16:13:09;2.08;;;1.88;;
21258;SDS011;10787;53.364;-1.480;2023-06-24T16:15:56;3.22;;;2.30;;
21258;SDS011;10787;53.364;-1.480;2023-06-24T16:18:40;2.20;;;2.00;;
21258;SDS011;10787;53.364;-1.480;2023-06-24T16:21:24;2.35;;;1.90;;
21258;SDS011;10787;53.364;-1.480;2023-06-24T16:24:09;2.90;;;2.50;;
21258;SDS011;10787;53.364;-1.480;2023-06-24T16:26:54;3.40;;;2.78;;
21258;SDS011;10787;53.364;-1.480;2023-06-24T16:29:39;2.90;;;2.47;;
21258;SDS011;10787;53.364;-1.480;2023-06-24T16:32:23;5.40;;;4.63;;
21258;SDS011;10787;53.364;-1.480;2023-06-24T16:35:07;7.20;;;5.78;;